Terminal Aerodrome Forecast
Issued by NWS St Louis, MO

Home | Current Version | Previous Version | Text Only | Print | Product List | Glossary Off
Versions: 1 2 3 4 5 6 7 8 9 10 11 12 13 14 15 16 17 18 19

000
FTUS43 KLSX 232300
TAFCOU
TAF
KCOU 232320Z 2400/2424 12012KT P6SM BKN150
     FM240600 14013KT P6SM BKN150 WS016/17045KT
     FM241500 16014G24KT 6SM -SHRA VCTS BKN050CB
     FM242000 18012KT 5SM -TSRA OVC035CB
     FM242200 27013KT P6SM OVC020=

USA.gov is the U.S. government's official web portal to all federal, state and local government web resources and services.